createdAt,value
2022-08-27T00:00:44.472Z,22.60
2022-08-27T00:03:11.631Z,21.95
2022-08-27T00:05:38.993Z,21.25
2022-08-27T00:08:07.291Z,26.33
2022-08-27T00:10:34.295Z,21.27
2022-08-27T00:13:01.461Z,21.70
2022-08-27T00:15:28.480Z,24.90
2022-08-27T00:17:55.517Z,25.05
2022-08-27T00:20:25.969Z,24.75
2022-08-27T00:22:53.474Z,29.02
2022-08-27T00:25:21.208Z,25.17
2022-08-27T00:27:48.014Z,24.90
2022-08-27T00:30:18.174Z,24.77
2022-08-27T00:32:45.336Z,24.70
2022-08-27T00:35:14.114Z,30.05
2022-08-27T00:37:41.264Z,28.65
2022-08-27T00:40:10.717Z,30.50
2022-08-27T00:42:37.783Z,23.20
2022-08-27T00:45:06.983Z,21.08
2022-08-27T00:47:37.051Z,26.33
2022-08-27T00:50:12.433Z,27.08
2022-08-27T00:52:52.584Z,24.27
2022-08-27T00:55:25.001Z,29.73
2022-08-27T00:58:23.298Z,19.90
2022-08-27T01:00:50.405Z,25.13
2022-08-27T01:03:17.613Z,21.77
2022-08-27T01:05:46.446Z,24.95
2022-08-27T01:08:23.234Z,22.35
2022-08-27T01:10:51.134Z,29.08
2022-08-27T01:13:21.959Z,25.92
2022-08-27T01:16:10.266Z,23.05
2022-08-27T01:18:38.827Z,24.20
2022-08-27T01:21:17.677Z,22.90
2022-08-27T01:24:09.712Z,26.92
2022-08-27T01:26:36.740Z,23.95
2022-08-27T01:29:03.715Z,24.02
2022-08-27T01:31:31.505Z,25.55
2022-08-27T01:34:05.072Z,20.20
2022-08-27T01:36:32.695Z,21.17
2022-08-27T01:38:59.870Z,21.55
2022-08-27T01:41:27.597Z,21.65
2022-08-27T01:43:54.386Z,24.50
2022-08-27T01:46:26.778Z,21.60
2022-08-27T01:48:54.454Z,21.27
2022-08-27T01:51:21.632Z,28.90
2022-08-27T01:53:48.665Z,22.13
2022-08-27T01:56:15.614Z,25.38
2022-08-27T01:58:43.425Z,19.85
2022-08-27T02:01:13.135Z,19.98
2022-08-27T02:03:40.745Z,22.50
2022-08-27T02:06:10.161Z,24.13
2022-08-27T02:08:37.461Z,23.75
2022-08-27T02:11:05.118Z,24.10
2022-08-27T02:13:32.047Z,22.30
2022-08-27T02:15:58.862Z,29.75
2022-08-27T02:18:25.771Z,24.95
2022-08-27T02:20:52.656Z,23.50
2022-08-27T02:23:20.538Z,27.27
2022-08-27T02:25:47.382Z,25.80
2022-08-27T02:28:14.521Z,27.70
2022-08-27T02:30:41.639Z,22.95
2022-08-27T02:33:09.532Z,23.33
2022-08-27T02:35:43.097Z,30.17
2022-08-27T02:38:12.677Z,19.80
2022-08-27T02:40:40.046Z,29.60
2022-08-27T02:43:07.575Z,28.02
2022-08-27T02:45:35.639Z,22.08
2022-08-27T02:48:02.963Z,27.27
2022-08-27T02:50:30.403Z,24.70
2022-08-27T02:52:57.917Z,24.00
2022-08-27T02:55:24.699Z,23.30
2022-08-27T02:57:51.491Z,26.08
2022-08-27T03:00:19.796Z,26.95
2022-08-27T03:02:47.195Z,25.45
2022-08-27T03:05:14.649Z,25.02
2022-08-27T03:07:41.886Z,24.98
2022-08-27T03:10:10.388Z,23.10
2022-08-27T03:12:37.509Z,23.83
2022-08-27T03:15:06.268Z,30.50
2022-08-27T03:17:51.658Z,28.20
2022-08-27T03:20:18.832Z,29.58
2022-08-27T03:22:45.989Z,28.92
2022-08-27T03:25:13.094Z,27.23
2022-08-27T03:27:39.971Z,30.48
2022-08-27T03:30:11.688Z,27.15
2022-08-27T03:32:39.224Z,25.10
2022-08-27T03:35:06.754Z,23.05
2022-08-27T03:37:33.586Z,33.63
2022-08-27T03:40:00.452Z,25.05
2022-08-27T03:42:27.386Z,29.77
2022-08-27T03:44:54.138Z,25.52
2022-08-27T03:47:22.513Z,30.40
2022-08-27T03:49:50.673Z,24.30
2022-08-27T03:52:18.512Z,20.00
2022-08-27T03:54:45.793Z,26.17
2022-08-27T03:57:12.984Z,28.17
2022-08-27T03:59:39.825Z,23.92
2022-08-27T04:02:07.302Z,30.13
2022-08-27T04:04:34.542Z,24.45
2022-08-27T04:07:01.738Z,25.95
2022-08-27T04:09:28.655Z,25.85
2022-08-27T04:11:55.477Z,27.00
2022-08-27T04:14:26.490Z,24.00
2022-08-27T04:16:56.197Z,22.83
2022-08-27T04:19:27.798Z,21.70
2022-08-27T04:22:02.668Z,22.85
2022-08-27T04:24:31.230Z,26.13
2022-08-27T04:26:58.626Z,23.92
2022-08-27T04:29:25.503Z,21.13
2022-08-27T04:31:52.486Z,28.08
2022-08-27T04:34:19.523Z,22.67
2022-08-27T04:36:46.673Z,22.95
2022-08-27T04:39:14.368Z,19.83
2022-08-27T04:41:41.558Z,19.08
2022-08-27T04:44:10.670Z,22.08
2022-08-27T04:46:39.719Z,24.70
2022-08-27T04:49:13.630Z,19.83
2022-08-27T04:51:43.076Z,20.80
2022-08-27T04:54:10.976Z,21.60
2022-08-27T04:56:38.455Z,23.95
2022-08-27T04:59:08.145Z,23.75
2022-08-27T05:01:35.514Z,22.92
2022-08-27T05:04:02.576Z,22.33
2022-08-27T05:06:29.564Z,26.55
2022-08-27T05:08:56.930Z,20.55
2022-08-27T05:11:27.074Z,21.73
2022-08-27T05:13:53.865Z,20.67
2022-08-27T05:16:22.840Z,22.88
2022-08-27T05:18:51.724Z,30.15
2022-08-27T05:21:21.255Z,23.23
2022-08-27T05:23:48.413Z,25.80
2022-08-27T05:26:16.809Z,22.67
2022-08-27T05:28:44.093Z,21.25
2022-08-27T05:31:13.191Z,25.15
2022-08-27T05:33:41.652Z,23.05
2022-08-27T05:36:16.260Z,20.77
2022-08-27T05:38:43.259Z,23.33
2022-08-27T05:41:12.828Z,29.15
2022-08-27T05:43:41.399Z,26.83
2022-08-27T05:46:14.726Z,26.98
2022-08-27T05:48:42.554Z,23.90
2022-08-27T05:51:25.604Z,17.25
2022-08-27T05:53:58.342Z,23.58
2022-08-27T05:56:26.879Z,25.13
2022-08-27T05:59:12.552Z,23.63
2022-08-27T06:01:46.825Z,26.30
2022-08-27T06:04:18.126Z,24.38
2022-08-27T06:06:45.541Z,23.83
2022-08-27T06:09:15.522Z,23.90
2022-08-27T06:11:42.697Z,27.90
2022-08-27T06:14:10.485Z,18.90
2022-08-27T06:16:38.500Z,14.73
2022-08-27T06:19:07.195Z,25.27
2022-08-27T06:21:34.704Z,20.50
2022-08-27T06:24:02.062Z,22.90
2022-08-27T06:26:29.313Z,26.00
2022-08-27T06:28:56.984Z,20.33
2022-08-27T06:31:26.764Z,23.40
2022-08-27T06:33:58.537Z,23.13
2022-08-27T06:38:57.778Z,18.13
2022-08-27T06:41:27.355Z,21.38
2022-08-27T06:43:55.942Z,23.48
2022-08-27T06:46:25.663Z,19.95
2022-08-27T06:48:55.372Z,18.20
2022-08-27T06:51:26.234Z,17.52
2022-08-27T06:53:55.393Z,17.60
2022-08-27T06:56:23.171Z,19.70
2022-08-27T06:58:55.241Z,20.98
2022-08-27T07:01:25.218Z,23.60
2022-08-27T07:03:55.207Z,21.85
2022-08-27T07:06:26.015Z,24.17
2022-08-27T07:08:53.092Z,22.05
2022-08-27T07:11:20.583Z,20.10
2022-08-27T07:13:48.835Z,20.77
2022-08-27T07:16:19.552Z,20.75
2022-08-27T07:18:51.574Z,16.23
2022-08-27T07:21:20.100Z,20.25
2022-08-27T07:23:48.694Z,18.05
2022-08-27T07:26:16.786Z,18.30
2022-08-27T07:28:44.942Z,16.92
2022-08-27T07:31:13.879Z,18.75
2022-08-27T07:33:46.227Z,19.67
2022-08-27T07:36:18.880Z,16.15
2022-08-27T07:38:57.051Z,20.27
2022-08-27T07:41:31.196Z,14.15
2022-08-27T07:44:19.862Z,15.80
2022-08-27T07:46:48.639Z,22.02
2022-08-27T07:49:17.602Z,14.43
2022-08-27T07:51:44.837Z,15.75
2022-08-27T07:54:11.660Z,12.38
2022-08-27T07:56:38.701Z,14.02
2022-08-27T07:59:05.523Z,11.13
2022-08-27T08:01:32.528Z,11.85
2022-08-27T08:03:59.597Z,9.23
2022-08-27T08:06:27.130Z,9.88
2022-08-27T08:08:53.869Z,10.10
2022-08-27T08:11:21.023Z,12.63
2022-08-27T08:13:47.966Z,12.80
2022-08-27T08:16:15.405Z,13.13
2022-08-27T08:18:42.421Z,12.65
2022-08-27T08:21:12.071Z,8.68
2022-08-27T08:23:39.251Z,9.85
2022-08-27T08:26:06.926Z,10.43
2022-08-27T08:28:34.081Z,7.28
2022-08-27T08:31:01.414Z,10.45
2022-08-27T08:33:29.684Z,12.63
2022-08-27T08:36:06.729Z,10.15
2022-08-27T08:38:33.860Z,10.07
2022-08-27T08:41:00.770Z,11.27
2022-08-27T08:43:30.608Z,10.63
2022-08-27T08:46:07.843Z,9.68
2022-08-27T08:48:37.155Z,15.45
2022-08-27T08:51:12.869Z,12.13
2022-08-27T08:53:52.905Z,10.70
2022-08-27T08:56:43.597Z,12.88
2022-08-27T08:59:31.304Z,13.98
2022-08-27T09:01:58.604Z,12.27
2022-08-27T09:04:27.528Z,12.70
2022-08-27T09:07:03.156Z,12.68
2022-08-27T09:10:00.552Z,11.18
2022-08-27T09:12:30.684Z,14.23
2022-08-27T09:15:14.022Z,14.70
2022-08-27T09:17:42.036Z,14.60
2022-08-27T09:20:13.266Z,14.32
2022-08-27T09:23:00.635Z,14.30
2022-08-27T09:25:34.343Z,16.02
2022-08-27T09:28:27.001Z,15.60
2022-08-27T09:30:55.832Z,14.60
2022-08-27T09:33:22.774Z,16.55
2022-08-27T09:35:52.141Z,14.80
2022-08-27T09:38:29.775Z,13.93
2022-08-27T09:41:00.812Z,14.23
2022-08-27T09:43:31.508Z,14.35
2022-08-27T09:46:07.307Z,14.15
2022-08-27T09:48:37.608Z,9.50
2022-08-27T09:51:13.958Z,14.05
2022-08-27T09:53:45.442Z,12.13
2022-08-27T09:56:22.716Z,11.35
2022-08-27T10:01:48.840Z,11.45
2022-08-27T10:04:23.744Z,14.40
2022-08-27T10:06:51.896Z,11.43
2022-08-27T10:09:35.421Z,10.00
2022-08-27T10:12:22.667Z,10.75
2022-08-27T10:14:58.432Z,12.55
2022-08-27T10:17:32.534Z,8.70
2022-08-27T10:20:30.698Z,10.60
2022-08-27T10:23:29.938Z,11.02
2022-08-27T10:26:19.685Z,10.82
2022-08-27T10:29:06.132Z,18.23
2022-08-27T10:31:41.635Z,11.18
2022-08-27T10:34:21.079Z,9.90
2022-08-27T10:36:56.309Z,10.63
2022-08-27T10:39:49.736Z,11.43
2022-08-27T10:42:27.656Z,12.80
2022-08-27T10:45:41.671Z,7.75
2022-08-27T10:48:30.532Z,10.98
2022-08-27T10:51:04.618Z,14.90
2022-08-27T10:53:49.803Z,11.52
2022-08-27T10:56:33.003Z,20.95
2022-08-27T10:59:32.999Z,13.43
2022-08-27T11:02:14.918Z,11.65
2022-08-27T11:04:50.962Z,13.50
2022-08-27T11:07:31.765Z,14.07
2022-08-27T11:10:36.331Z,12.50
2022-08-27T11:13:11.593Z,13.80
2022-08-27T11:15:43.773Z,9.85
2022-08-27T11:18:35.267Z,13.07
2022-08-27T11:21:10.373Z,10.32
2022-08-27T11:23:43.309Z,10.73
2022-08-27T11:26:10.172Z,9.13
2022-08-27T11:28:48.673Z,9.93
2022-08-27T11:31:18.400Z,10.35
2022-08-27T11:34:21.469Z,9.68
2022-08-27T11:37:12.370Z,11.52
2022-08-27T11:39:51.802Z,9.35
2022-08-27T11:42:39.551Z,9.90
2022-08-27T11:45:15.417Z,8.15
2022-08-27T11:47:53.043Z,8.00
2022-08-27T11:50:21.627Z,9.88
2022-08-27T11:53:07.117Z,9.10
2022-08-27T11:55:39.414Z,8.98
2022-08-27T11:58:25.919Z,9.18
2022-08-27T12:00:53.677Z,12.45
2022-08-27T12:03:20.428Z,11.43
2022-08-27T12:05:48.765Z,6.32
2022-08-27T12:08:29.009Z,9.98
2022-08-27T12:11:35.835Z,9.32
2022-08-27T12:14:34.782Z,7.85
2022-08-27T12:17:26.409Z,8.55
2022-08-27T12:20:13.471Z,8.27
2022-08-27T12:23:27.032Z,6.75
2022-08-27T12:26:00.414Z,7.68
2022-08-27T12:28:28.300Z,6.70
2022-08-27T12:30:55.982Z,6.38
2022-08-27T12:33:45.609Z,5.85
2022-08-27T12:36:28.067Z,9.10
2022-08-27T12:38:57.993Z,8.25
2022-08-27T12:41:44.312Z,6.65
2022-08-27T12:44:31.493Z,6.50
2022-08-27T12:49:39.708Z,7.13
2022-08-27T12:55:02.481Z,7.75
2022-08-27T12:57:47.714Z,7.93
2022-08-27T13:00:19.531Z,4.80
2022-08-27T13:02:52.942Z,8.23
2022-08-27T13:05:22.093Z,5.40
2022-08-27T13:07:51.062Z,5.85
2022-08-27T13:10:31.299Z,8.45
2022-08-27T13:13:19.595Z,7.30
2022-08-27T13:16:01.126Z,7.57
2022-08-27T13:18:29.504Z,2.78
2022-08-27T13:21:22.449Z,7.75
2022-08-27T13:23:58.336Z,6.85
2022-08-27T13:26:29.518Z,4.72
2022-08-27T13:29:03.118Z,3.42
2022-08-27T13:31:31.864Z,8.00
2022-08-27T13:34:00.240Z,5.28
2022-08-27T13:36:47.961Z,8.07
2022-08-27T13:39:14.756Z,9.30
2022-08-27T13:41:41.743Z,7.15
2022-08-27T13:44:23.758Z,7.13
2022-08-27T13:46:57.934Z,5.22
2022-08-27T13:49:27.302Z,4.80
2022-08-27T13:52:22.568Z,13.23
2022-08-27T13:54:57.994Z,5.57
2022-08-27T13:57:31.240Z,4.18
2022-08-27T14:00:32.622Z,5.28
2022-08-27T14:03:01.599Z,8.13
2022-08-27T14:05:32.054Z,7.45
2022-08-27T14:08:17.923Z,6.18
2022-08-27T14:10:48.712Z,3.80
2022-08-27T14:13:23.154Z,5.07
2022-08-27T14:15:52.670Z,6.22
2022-08-27T14:18:58.324Z,3.20
2022-08-27T14:21:22.948Z,3.90
2022-08-27T14:23:49.931Z,1.50
2022-08-27T14:26:17.558Z,5.38
2022-08-27T14:28:45.339Z,5.70
2022-08-27T14:31:13.906Z,4.63
2022-08-27T14:33:40.922Z,7.35
2022-08-27T14:36:09.250Z,3.38
2022-08-27T14:38:40.793Z,3.00
2022-08-27T14:41:08.631Z,3.17
2022-08-27T14:43:36.224Z,2.83
2022-08-27T14:46:04.499Z,4.53
2022-08-27T14:48:33.526Z,2.42
2022-08-27T14:51:03.068Z,4.28
2022-08-27T14:53:29.872Z,4.03
2022-08-27T14:55:58.927Z,3.75
2022-08-27T14:58:25.953Z,3.70
2022-08-27T15:00:55.295Z,5.72
2022-08-27T15:03:25.452Z,4.22
2022-08-27T15:05:56.154Z,1.33
2022-08-27T15:08:27.639Z,2.67
2022-08-27T15:10:57.914Z,4.00
2022-08-27T15:13:24.851Z,5.15
2022-08-27T15:15:52.293Z,2.15
2022-08-27T15:18:19.826Z,6.18
2022-08-27T15:20:47.479Z,4.63
2022-08-27T15:23:15.448Z,7.10
2022-08-27T15:25:44.429Z,3.80
2022-08-27T15:28:11.404Z,4.07
2022-08-27T15:30:38.625Z,2.65
2022-08-27T15:33:06.670Z,6.53
2022-08-27T15:35:34.336Z,3.60
2022-08-27T15:38:01.789Z,2.17
2022-08-27T15:40:32.899Z,7.95
2022-08-27T15:43:03.342Z,2.83
2022-08-27T15:45:32.251Z,4.00
2022-08-27T15:47:59.709Z,3.00
2022-08-27T15:50:28.702Z,3.80
2022-08-27T15:52:59.528Z,6.80
2022-08-27T15:55:30.196Z,6.80
2022-08-27T15:57:57.466Z,9.13
2022-08-27T16:00:24.744Z,8.13
2022-08-27T16:02:52.370Z,3.72
2022-08-27T16:05:20.459Z,2.47
2022-08-27T16:07:47.597Z,5.63
2022-08-27T16:10:15.065Z,3.40
2022-08-27T16:12:41.858Z,8.82
2022-08-27T16:15:09.503Z,2.78
2022-08-27T16:17:36.743Z,2.15
2022-08-27T16:20:06.784Z,1.88
2022-08-27T16:22:34.917Z,4.47
2022-08-27T16:25:02.652Z,3.38
2022-08-27T16:27:29.424Z,4.10
2022-08-27T16:29:56.535Z,5.75
2022-08-27T16:32:23.876Z,1.58
2022-08-27T16:34:55.851Z,4.88
2022-08-27T16:37:24.479Z,4.18
2022-08-27T16:39:51.543Z,3.38
2022-08-27T16:42:18.406Z,2.08
2022-08-27T16:44:45.588Z,4.80
2022-08-27T16:47:12.758Z,5.00
2022-08-27T16:49:58.046Z,1.95
2022-08-27T16:52:24.917Z,3.60
2022-08-27T16:54:52.162Z,2.90
2022-08-27T16:57:19.203Z,3.08
2022-08-27T16:59:46.133Z,4.45
2022-08-27T17:02:35.040Z,4.72
2022-08-27T17:05:34.010Z,1.83
2022-08-27T17:07:50.003Z,2.13
2022-08-27T17:10:20.393Z,2.88
2022-08-27T17:12:47.968Z,4.07
2022-08-27T17:15:16.608Z,1.98
2022-08-27T17:17:46.681Z,1.80
2022-08-27T17:20:15.102Z,2.78
2022-08-27T17:22:42.748Z,6.97
2022-08-27T17:25:10.956Z,1.90
2022-08-27T17:27:37.811Z,3.40
2022-08-27T17:30:06.774Z,5.45
2022-08-27T17:32:38.410Z,4.85
2022-08-27T17:35:07.637Z,3.97
2022-08-27T17:37:34.876Z,2.72
2022-08-27T17:40:01.977Z,3.38
2022-08-27T17:42:30.962Z,2.92
2022-08-27T17:44:58.797Z,1.42
2022-08-27T17:47:26.050Z,4.60
2022-08-27T17:49:52.945Z,6.60
2022-08-27T17:52:20.766Z,4.78
2022-08-27T17:54:51.058Z,2.53
2022-08-27T17:57:27.422Z,4.40
2022-08-27T17:59:55.004Z,2.95
2022-08-27T18:02:32.892Z,3.60
2022-08-27T18:04:59.819Z,4.43
2022-08-27T18:07:26.760Z,6.85
2022-08-27T18:09:54.427Z,7.18
2022-08-27T18:12:24.792Z,4.40
2022-08-27T18:15:06.342Z,3.30
2022-08-27T18:17:34.240Z,5.38
2022-08-27T18:20:06.636Z,3.90
2022-08-27T18:22:38.897Z,5.35
2022-08-27T18:25:08.778Z,4.78
2022-08-27T18:27:40.002Z,3.85
2022-08-27T18:30:08.324Z,14.25
2022-08-27T18:32:35.631Z,5.10
2022-08-27T18:35:09.581Z,5.28
2022-08-27T18:37:36.407Z,3.80
2022-08-27T18:40:03.569Z,5.63
2022-08-27T18:42:31.243Z,5.28
2022-08-27T18:44:59.759Z,2.00
2022-08-27T18:47:28.265Z,2.80
2022-08-27T18:49:55.057Z,5.20
2022-08-27T18:52:23.182Z,5.43
2022-08-27T18:54:50.123Z,3.40
2022-08-27T18:57:17.091Z,4.97
2022-08-27T18:59:43.956Z,2.63
2022-08-27T19:02:18.111Z,6.80
2022-08-27T19:04:45.885Z,8.65
2022-08-27T19:07:13.258Z,3.17
2022-08-27T19:09:40.162Z,4.43
2022-08-27T19:12:07.241Z,2.33
2022-08-27T19:14:34.301Z,3.00
2022-08-27T19:17:02.835Z,3.70
2022-08-27T19:19:29.835Z,7.40
2022-08-27T19:21:57.147Z,5.40
2022-08-27T19:24:28.965Z,7.60
2022-08-27T19:26:56.267Z,2.50
2022-08-27T19:29:23.251Z,4.50
2022-08-27T19:31:50.354Z,5.47
2022-08-27T19:34:17.284Z,7.25
2022-08-27T19:36:44.429Z,3.53
2022-08-27T19:39:13.699Z,4.55
2022-08-27T19:41:41.084Z,8.63
2022-08-27T19:44:08.500Z,4.07
2022-08-27T19:46:36.617Z,5.85
2022-08-27T19:49:03.951Z,2.25
2022-08-27T19:51:31.191Z,4.82
2022-08-27T19:53:58.065Z,13.45
2022-08-27T19:56:25.054Z,3.88
2022-08-27T19:58:56.601Z,3.47
2022-08-27T20:01:24.714Z,6.68
2022-08-27T20:03:51.631Z,6.20
2022-08-27T20:06:19.102Z,4.18
2022-08-27T20:08:46.132Z,6.47
2022-08-27T20:11:17.841Z,5.07
2022-08-27T20:13:50.914Z,2.58
2022-08-27T20:16:17.928Z,7.55
2022-08-27T20:18:45.102Z,5.30
2022-08-27T20:21:11.972Z,4.68
2022-08-27T20:23:38.891Z,6.25
2022-08-27T20:26:05.984Z,5.47
2022-08-27T20:28:39.395Z,9.25
2022-08-27T20:31:07.375Z,4.28
2022-08-27T20:33:34.275Z,7.65
2022-08-27T20:36:02.855Z,3.65
2022-08-27T20:38:29.770Z,4.05
2022-08-27T20:40:56.568Z,5.43
2022-08-27T20:43:23.632Z,4.03
2022-08-27T20:45:50.618Z,6.78
2022-08-27T20:48:17.604Z,4.03
2022-08-27T20:50:44.485Z,4.95
2022-08-27T20:53:11.366Z,6.65
2022-08-27T20:55:38.354Z,5.90
2022-08-27T20:58:24.168Z,6.50
2022-08-27T21:00:55.187Z,8.67
2022-08-27T21:03:23.074Z,5.15
2022-08-27T21:05:50.016Z,10.82
2022-08-27T21:08:21.760Z,5.65
2022-08-27T21:10:52.292Z,5.68
2022-08-27T21:13:20.540Z,6.47
2022-08-27T21:15:48.830Z,7.65
2022-08-27T21:18:21.252Z,8.77
2022-08-27T21:20:56.264Z,8.00
2022-08-27T21:23:23.202Z,7.15
2022-08-27T21:25:50.043Z,6.05
2022-08-27T21:28:16.841Z,5.60
2022-08-27T21:30:45.093Z,4.63
2022-08-27T21:33:11.882Z,2.72
2022-08-27T21:35:38.647Z,5.32
2022-08-27T21:38:05.480Z,6.10
2022-08-27T21:40:33.067Z,5.15
2022-08-27T21:43:01.818Z,10.57
2022-08-27T21:45:28.740Z,2.17
2022-08-27T21:47:56.057Z,9.30
2022-08-27T21:50:24.225Z,7.50
2022-08-27T21:52:51.618Z,5.78
2022-08-27T21:55:18.534Z,4.40
2022-08-27T21:57:45.360Z,3.95
2022-08-27T22:00:38.337Z,7.78
2022-08-27T22:03:10.338Z,6.30
2022-08-27T22:05:40.229Z,5.30
2022-08-27T22:08:08.624Z,4.75
2022-08-27T22:10:35.501Z,5.78
2022-08-27T22:13:02.526Z,6.38
2022-08-27T22:15:29.684Z,6.10
2022-08-27T22:17:56.478Z,3.13
2022-08-27T22:20:23.344Z,2.65
2022-08-27T22:22:50.580Z,5.20
2022-08-27T22:25:17.350Z,11.60
2022-08-27T22:27:44.714Z,8.45
2022-08-27T22:30:12.813Z,15.73
2022-08-27T22:32:41.289Z,4.57
2022-08-27T22:35:09.163Z,4.38
2022-08-27T22:37:36.363Z,9.43
2022-08-27T22:40:05.806Z,5.70
2022-08-27T22:42:32.731Z,7.32
2022-08-27T22:45:00.474Z,3.60
2022-08-27T22:47:27.425Z,6.07
2022-08-27T22:49:54.231Z,5.18
2022-08-27T22:52:28.057Z,6.65
2022-08-27T22:54:55.139Z,7.00
2022-08-27T22:57:21.986Z,8.60
2022-08-27T22:59:48.800Z,3.53
2022-08-27T23:02:15.645Z,8.43
2022-08-27T23:04:54.614Z,5.60
2022-08-27T23:07:21.777Z,5.78
2022-08-27T23:09:48.533Z,10.35
2022-08-27T23:12:15.592Z,6.90
2022-08-27T23:14:42.421Z,7.50
2022-08-27T23:17:09.277Z,6.97
2022-08-27T23:19:36.013Z,7.05
2022-08-27T23:22:02.873Z,8.25
2022-08-27T23:24:34.589Z,3.83
2022-08-27T23:27:33.455Z,4.60
2022-08-27T23:30:02.068Z,11.45
2022-08-27T23:32:29.698Z,7.75
2022-08-27T23:34:57.262Z,8.88
2022-08-27T23:37:24.113Z,4.55
2022-08-27T23:39:51.353Z,5.65
2022-08-27T23:42:18.770Z,7.18
2022-08-27T23:44:46.885Z,7.25
2022-08-27T23:47:13.739Z,4.60
2022-08-27T23:49:43.211Z,8.57
2022-08-27T23:52:14.715Z,7.53
2022-08-27T23:54:45.526Z,3.72
2022-08-27T23:57:12.605Z,5.47
2022-08-27T23:59:39.415Z,8.00
